Antioch, Texas
Current Conditions -  °F | °C
As of 10:35 AM on Thursday 23 Oct 2014 (Local Time) from KOCH Reporting Station
Clear Clear  
Wind Chill: 63°   Ceiling: Unl
Heat Index: 63°   Visibility: 10mi
Dew Point: 50°   Wind: 3mph
Humidity: 63%   Direction: 60°ENE
Pressure: 30.18"   Gusts: NA
Location:  31.8636°N, 94.3909°W
Report Text: KOCH 231535Z AUTO 06003KT 10SM CLR 17/10 A3018 RMK AO1
Loading
Personal Weather Stations






























Interactive Weather Map
Tropical Storm Tracking
New forecast layout! Learn more

10-Day Weather Forecast

Advertisements
Track Severe Weather on mobile